sensor_id;sensor_type;location;lat;lon;timestamp;pressure;altitude;pressure_sealevel;temperature;humidity
75045;BME280;63614;56.026;35.960;2023-04-15T00:01:22;100308.44;;;1.09;34.86
75045;BME280;63614;56.026;35.960;2023-04-15T00:03:53;100309.34;;;1.08;34.95
75045;BME280;63614;56.026;35.960;2023-04-15T00:06:22;100318.19;;;1.04;34.86
75045;BME280;63614;56.026;35.960;2023-04-15T00:08:48;100319.91;;;1.03;34.78
75045;BME280;63614;56.026;35.960;2023-04-15T00:11:15;100327.09;;;0.98;35.24
75045;BME280;63614;56.026;35.960;2023-04-15T00:13:41;100328.09;;;0.96;35.19
75045;BME280;63614;56.026;35.960;2023-04-15T00:16:08;100329.25;;;0.92;35.46
75045;BME280;63614;56.026;35.960;2023-04-15T00:18:34;100329.44;;;0.88;35.43
75045;BME280;63614;56.026;35.960;2023-04-15T00:21:00;100326.38;;;0.83;35.31
75045;BME280;63614;56.026;35.960;2023-04-15T00:23:26;100342.84;;;0.79;35.07
75045;BME280;63614;56.026;35.960;2023-04-15T00:25:52;100337.22;;;0.74;35.85
75045;BME280;63614;56.026;35.960;2023-04-15T00:28:18;100347.25;;;0.64;35.50
75045;BME280;63614;56.026;35.960;2023-04-15T00:30:44;100341.28;;;0.64;35.69
75045;BME280;63614;56.026;35.960;2023-04-15T00:33:11;100350.28;;;0.57;36.38
75045;BME280;63614;56.026;35.960;2023-04-15T00:35:37;100346.38;;;0.51;36.38
75045;BME280;63614;56.026;35.960;2023-04-15T00:38:04;100352.03;;;0.43;37.20
75045;BME280;63614;56.026;35.960;2023-04-15T00:40:30;100360.88;;;0.38;37.01
75045;BME280;63614;56.026;35.960;2023-04-15T00:42:56;100356.59;;;0.38;37.55
75045;BME280;63614;56.026;35.960;2023-04-15T00:45:21;100368.94;;;0.31;36.60
75045;BME280;63614;56.026;35.960;2023-04-15T00:47:47;100373.34;;;0.29;37.47
75045;BME280;63614;56.026;35.960;2023-04-15T00:50:14;100372.19;;;0.21;38.08
75045;BME280;63614;56.026;35.960;2023-04-15T00:52:40;100373.50;;;0.13;37.64
75045;BME280;63614;56.026;35.960;2023-04-15T00:55:06;100373.41;;;0.15;37.55
75045;BME280;63614;56.026;35.960;2023-04-15T00:57:34;100377.72;;;0.14;38.13
75045;BME280;63614;56.026;35.960;2023-04-15T01:00:00;100377.81;;;0.13;37.84
75045;BME280;63614;56.026;35.960;2023-04-15T01:02:26;100387.56;;;0.06;38.37
75045;BME280;63614;56.026;35.960;2023-04-15T01:04:51;100384.38;;;0.03;38.31
75045;BME280;63614;56.026;35.960;2023-04-15T01:07:17;100388.69;;;0.02;37.63
75045;BME280;63614;56.026;35.960;2023-04-15T01:09:43;100388.78;;;0.01;37.97
75045;BME280;63614;56.026;35.960;2023-04-15T01:12:13;100392.44;;;-0.04;38.11
75045;BME280;63614;56.026;35.960;2023-04-15T01:14:41;100389.44;;;-0.10;38.78
75045;BME280;63614;56.026;35.960;2023-04-15T01:17:08;100406.72;;;-0.14;37.98
75045;BME280;63614;56.026;35.960;2023-04-15T01:19:35;100396.59;;;-0.15;38.24
75045;BME280;63614;56.026;35.960;2023-04-15T01:22:01;100401.69;;;-0.15;38.33
75045;BME280;63614;56.026;35.960;2023-04-15T01:24:29;100400.13;;;-0.18;38.89
75045;BME280;63614;56.026;35.960;2023-04-15T01:26:56;100403.53;;;-0.17;38.36
75045;BME280;63614;56.026;35.960;2023-04-15T01:29:23;100406.63;;;-0.27;39.37
75045;BME280;63614;56.026;35.960;2023-04-15T01:31:50;100398.13;;;-0.27;38.69
75045;BME280;63614;56.026;35.960;2023-04-15T01:34:35;100405.06;;;-0.29;39.14
75045;BME280;63614;56.026;35.960;2023-04-15T01:37:19;100410.47;;;-0.34;39.23
75045;BME280;63614;56.026;35.960;2023-04-15T01:40:04;100413.78;;;-0.32;39.42
75045;BME280;63614;56.026;35.960;2023-04-15T01:42:32;100410.56;;;-0.35;39.55
75045;BME280;63614;56.026;35.960;2023-04-15T01:44:59;100415.66;;;-0.35;38.50
75045;BME280;63614;56.026;35.960;2023-04-15T01:47:26;100409.75;;;-0.36;38.95
75045;BME280;63614;56.026;35.960;2023-04-15T01:49:53;100404.63;;;-0.36;39.08
75045;BME280;63614;56.026;35.960;2023-04-15T01:52:22;100414.13;;;-0.38;38.85
75045;BME280;63614;56.026;35.960;2023-04-15T01:54:50;100413.28;;;-0.39;39.12
75045;BME280;63614;56.026;35.960;2023-04-15T01:57:18;100422.78;;;-0.41;39.16
75045;BME280;63614;56.026;35.960;2023-04-15T01:59:45;100422.06;;;-0.43;39.45
75045;BME280;63614;56.026;35.960;2023-04-15T02:02:12;100421.97;;;-0.41;39.84
75045;BME280;63614;56.026;35.960;2023-04-15T02:04:39;100421.31;;;-0.45;38.83
75045;BME280;63614;56.026;35.960;2023-04-15T02:07:06;100427.47;;;-0.47;39.38
75045;BME280;63614;56.026;35.960;2023-04-15T02:09:35;100426.91;;;-0.52;38.72
75045;BME280;63614;56.026;35.960;2023-04-15T02:12:02;100434.00;;;-0.58;38.65
75045;BME280;63614;56.026;35.960;2023-04-15T02:14:29;100431.94;;;-0.51;38.46
75045;BME280;63614;56.026;35.960;2023-04-15T02:16:56;100445.41;;;-0.63;38.10
75045;BME280;63614;56.026;35.960;2023-04-15T02:19:23;100443.22;;;-0.55;38.19
75045;BME280;63614;56.026;35.960;2023-04-15T02:21:50;100449.50;;;-0.61;37.85
75045;BME280;63614;56.026;35.960;2023-04-15T02:24:17;100447.88;;;-0.62;38.58
75045;BME280;63614;56.026;35.960;2023-04-15T02:26:44;100450.25;;;-0.59;38.56
75045;BME280;63614;56.026;35.960;2023-04-15T02:29:12;100453.09;;;-0.63;38.47
75045;BME280;63614;56.026;35.960;2023-04-15T02:31:40;100452.72;;;-0.57;38.68
75045;BME280;63614;56.026;35.960;2023-04-15T02:34:07;100449.72;;;-0.64;38.34
75045;BME280;63614;56.026;35.960;2023-04-15T02:36:34;100463.94;;;-0.60;38.26
75045;BME280;63614;56.026;35.960;2023-04-15T02:39:02;100456.38;;;-0.61;37.99
75045;BME280;63614;56.026;35.960;2023-04-15T02:41:29;100462.03;;;-0.56;37.36
75045;BME280;63614;56.026;35.960;2023-04-15T02:43:57;100463.13;;;-0.60;38.00
75045;BME280;63614;56.026;35.960;2023-04-15T02:46:24;100466.59;;;-0.47;37.92
75045;BME280;63614;56.026;35.960;2023-04-15T02:48:51;100468.34;;;-0.47;38.18
75045;BME280;63614;56.026;35.960;2023-04-15T02:51:21;100462.44;;;-0.48;38.00
75045;BME280;63614;56.026;35.960;2023-04-15T02:53:48;100476.47;;;-0.41;38.57
75045;BME280;63614;56.026;35.960;2023-04-15T02:56:16;100473.38;;;-0.46;37.92
75045;BME280;63614;56.026;35.960;2023-04-15T02:58:44;100478.41;;;-0.44;38.49
75045;BME280;63614;56.026;35.960;2023-04-15T03:01:11;100476.56;;;-0.42;38.34
75045;BME280;63614;56.026;35.960;2023-04-15T03:03:40;100480.03;;;-0.43;37.69
75045;BME280;63614;56.026;35.960;2023-04-15T03:06:07;100481.78;;;-0.29;37.55
75045;BME280;63614;56.026;35.960;2023-04-15T03:08:35;100473.13;;;-0.27;37.95
75045;BME280;63614;56.026;35.960;2023-04-15T03:11:03;100476.38;;;-0.25;37.12
75045;BME280;63614;56.026;35.960;2023-04-15T03:13:30;100484.88;;;-0.10;38.35
75045;BME280;63614;56.026;35.960;2023-04-15T03:15:59;100478.22;;;-0.12;36.13
75045;BME280;63614;56.026;35.960;2023-04-15T03:18:27;100484.16;;;0.03;36.50
75045;BME280;63614;56.026;35.960;2023-04-15T03:20:54;100486.78;;;0.01;36.38
75045;BME280;63614;56.026;35.960;2023-04-15T03:23:22;100494.09;;;0.22;36.20
75045;BME280;63614;56.026;35.960;2023-04-15T03:25:49;100498.13;;;0.26;35.16
75045;BME280;63614;56.026;35.960;2023-04-15T03:28:16;100489.22;;;0.31;34.76
75045;BME280;63614;56.026;35.960;2023-04-15T03:30:43;100498.66;;;0.31;34.79
75045;BME280;63614;56.026;35.960;2023-04-15T03:33:10;100499.63;;;0.43;34.64
75045;BME280;63614;56.026;35.960;2023-04-15T03:35:37;100502.72;;;0.48;34.91
75045;BME280;63614;56.026;35.960;2023-04-15T03:38:04;100493.16;;;0.37;34.45
75045;BME280;63614;56.026;35.960;2023-04-15T03:40:31;100496.69;;;0.49;34.00
75045;BME280;63614;56.026;35.960;2023-04-15T03:42:58;100498.25;;;0.51;33.35
75045;BME280;63614;56.026;35.960;2023-04-15T03:45:25;100499.97;;;0.78;33.84
75045;BME280;63614;56.026;35.960;2023-04-15T03:47:52;100496.94;;;0.86;34.19
75045;BME280;63614;56.026;35.960;2023-04-15T03:50:19;100498.72;;;0.98;32.80
75045;BME280;63614;56.026;35.960;2023-04-15T03:52:46;100502.63;;;0.91;33.57
75045;BME280;63614;56.026;35.960;2023-04-15T03:55:13;100503.13;;;0.96;33.71
75045;BME280;63614;56.026;35.960;2023-04-15T03:57:41;100513.63;;;1.06;32.91
75045;BME280;63614;56.026;35.960;2023-04-15T04:00:08;100508.75;;;1.29;32.73
75045;BME280;63614;56.026;35.960;2023-04-15T04:02:41;100505.97;;;1.32;32.19
75045;BME280;63614;56.026;35.960;2023-04-15T04:05:08;100500.88;;;1.44;32.65
75045;BME280;63614;56.026;35.960;2023-04-15T04:07:35;100506.91;;;1.43;31.66
75045;BME280;63614;56.026;35.960;2023-04-15T04:10:02;100516.91;;;1.21;32.09
75045;BME280;63614;56.026;35.960;2023-04-15T04:12:29;100513.97;;;1.40;31.82
75045;BME280;63614;56.026;35.960;2023-04-15T04:14:56;100521.97;;;1.35;31.63
75045;BME280;63614;56.026;35.960;2023-04-15T04:17:23;100521.34;;;1.32;32.37
75045;BME280;63614;56.026;35.960;2023-04-15T04:19:50;100524.72;;;1.32;32.04
75045;BME280;63614;56.026;35.960;2023-04-15T04:22:17;100525.47;;;1.34;31.72
75045;BME280;63614;56.026;35.960;2023-04-15T04:24:47;100533.91;;;1.09;31.31
75045;BME280;63614;56.026;35.960;2023-04-15T04:27:14;100523.50;;;1.25;32.17
75045;BME280;63614;56.026;35.960;2023-04-15T04:29:42;100529.06;;;1.32;31.42
75045;BME280;63614;56.026;35.960;2023-04-15T04:32:09;100524.72;;;1.32;30.84
75045;BME280;63614;56.026;35.960;2023-04-15T04:34:36;100514.94;;;1.65;31.22
75045;BME280;63614;56.026;35.960;2023-04-15T04:37:03;100517.63;;;1.76;30.96
75045;BME280;63614;56.026;35.960;2023-04-15T04:39:30;100506.00;;;1.57;30.98
75045;BME280;63614;56.026;35.960;2023-04-15T04:41:59;100523.34;;;1.92;30.90
75045;BME280;63614;56.026;35.960;2023-04-15T04:44:27;100523.13;;;2.08;29.80
75045;BME280;63614;56.026;35.960;2023-04-15T04:46:53;100526.09;;;2.15;30.05
75045;BME280;63614;56.026;35.960;2023-04-15T04:49:20;100518.22;;;2.42;29.70
75045;BME280;63614;56.026;35.960;2023-04-15T04:51:47;100511.59;;;2.64;29.14
75045;BME280;63614;56.026;35.960;2023-04-15T04:54:14;100519.72;;;3.06;28.21
75045;BME280;63614;56.026;35.960;2023-04-15T04:56:41;100512.41;;;3.13;27.50
75045;BME280;63614;56.026;35.960;2023-04-15T04:59:08;100526.50;;;3.31;27.90
75045;BME280;63614;56.026;35.960;2023-04-15T05:01:35;100530.09;;;3.28;27.35
75045;BME280;63614;56.026;35.960;2023-04-15T05:04:02;100523.78;;;3.79;27.43
75045;BME280;63614;56.026;35.960;2023-04-15T05:06:30;100528.34;;;3.76;27.23
75045;BME280;63614;56.026;35.960;2023-04-15T05:08:58;100525.75;;;4.55;26.57
75045;BME280;63614;56.026;35.960;2023-04-15T05:11:25;100525.00;;;5.08;25.37
75045;BME280;63614;56.026;35.960;2023-04-15T05:13:51;100526.59;;;5.20;25.41
75045;BME280;63614;56.026;35.960;2023-04-15T05:16:18;100531.69;;;5.32;24.52
75045;BME280;63614;56.026;35.960;2023-04-15T05:18:46;100531.31;;;5.36;24.66
75045;BME280;63614;56.026;35.960;2023-04-15T05:21:13;100526.22;;;5.46;24.54
75045;BME280;63614;56.026;35.960;2023-04-15T05:23:40;100527.59;;;5.29;24.61
75045;BME280;63614;56.026;35.960;2023-04-15T05:26:07;100533.53;;;4.76;24.80
75045;BME280;63614;56.026;35.960;2023-04-15T05:28:34;100535.19;;;4.77;25.05
75045;BME280;63614;56.026;35.960;2023-04-15T05:31:01;100536.28;;;4.96;24.84
75045;BME280;63614;56.026;35.960;2023-04-15T05:33:28;100521.25;;;5.33;24.14
75045;BME280;63614;56.026;35.960;2023-04-15T05:35:55;100524.75;;;5.53;24.02
75045;BME280;63614;56.026;35.960;2023-04-15T05:38:22;100539.94;;;4.93;23.91
75045;BME280;63614;56.026;35.960;2023-04-15T05:40:49;100535.09;;;4.56;25.16
75045;BME280;63614;56.026;35.960;2023-04-15T05:43:16;100528.81;;;4.04;25.27
75045;BME280;63614;56.026;35.960;2023-04-15T05:45:43;100531.78;;;4.10;25.41
75045;BME280;63614;56.026;35.960;2023-04-15T05:48:10;100530.91;;;3.87;25.98
75045;BME280;63614;56.026;35.960;2023-04-15T05:50:42;100532.78;;;4.42;25.86
75045;BME280;63614;56.026;35.960;2023-04-15T05:53:10;100529.28;;;4.31;25.52
75045;BME280;63614;56.026;35.960;2023-04-15T05:55:37;100534.53;;;4.41;25.90
75045;BME280;63614;56.026;35.960;2023-04-15T05:58:04;100536.44;;;4.05;25.66
75045;BME280;63614;56.026;35.960;2023-04-15T06:00:31;100537.72;;;3.77;25.89
75045;BME280;63614;56.026;35.960;2023-04-15T06:02:58;100541.72;;;4.15;25.69
75045;BME280;63614;56.026;35.960;2023-04-15T06:05:25;100551.19;;;4.03;25.86
75045;BME280;63614;56.026;35.960;2023-04-15T06:07:53;100549.41;;;4.04;25.91
75045;BME280;63614;56.026;35.960;2023-04-15T06:10:20;100548.94;;;3.76;26.44
75045;BME280;63614;56.026;35.960;2023-04-15T06:12:47;100548.75;;;3.43;26.40
75045;BME280;63614;56.026;35.960;2023-04-15T06:15:14;100555.72;;;3.77;26.47
75045;BME280;63614;56.026;35.960;2023-04-15T06:17:42;100557.22;;;3.79;26.24
75045;BME280;63614;56.026;35.960;2023-04-15T06:20:09;100548.84;;;4.11;25.98
75045;BME280;63614;56.026;35.960;2023-04-15T06:22:36;100550.38;;;3.91;26.25
75045;BME280;63614;56.026;35.960;2023-04-15T06:25:05;100552.94;;;4.03;26.54
75045;BME280;63614;56.026;35.960;2023-04-15T06:27:33;100555.97;;;4.42;26.25
75045;BME280;63614;56.026;35.960;2023-04-15T06:30:01;100555.28;;;4.17;26.31
75045;BME280;63614;56.026;35.960;2023-04-15T06:32:28;100558.44;;;4.09;25.74
75045;BME280;63614;56.026;35.960;2023-04-15T06:34:55;100565.59;;;4.17;25.88
75045;BME280;63614;56.026;35.960;2023-04-15T06:37:22;100559.00;;;4.24;26.08
75045;BME280;63614;56.026;35.960;2023-04-15T06:39:49;100561.00;;;4.43;25.90
75045;BME280;63614;56.026;35.960;2023-04-15T06:42:16;100557.13;;;4.60;25.86
75045;BME280;63614;56.026;35.960;2023-04-15T06:44:43;100560.81;;;4.90;25.65
75045;BME280;63614;56.026;35.960;2023-04-15T06:47:10;100583.09;;;4.68;25.57
75045;BME280;63614;56.026;35.960;2023-04-15T06:49:40;100579.75;;;4.57;25.24
75045;BME280;63614;56.026;35.960;2023-04-15T06:52:07;100582.59;;;4.86;25.88
75045;BME280;63614;56.026;35.960;2023-04-15T06:54:34;100579.75;;;4.45;25.01
75045;BME280;63614;56.026;35.960;2023-04-15T06:57:01;100579.00;;;4.77;25.26
75045;BME280;63614;56.026;35.960;2023-04-15T06:59:27;100584.75;;;4.69;25.32
75045;BME280;63614;56.026;35.960;2023-04-15T07:01:55;100580.00;;;4.97;24.80
75045;BME280;63614;56.026;35.960;2023-04-15T07:04:22;100584.47;;;5.27;24.19
75045;BME280;63614;56.026;35.960;2023-04-15T07:06:49;100580.22;;;5.59;24.16
75045;BME280;63614;56.026;35.960;2023-04-15T07:09:17;100583.31;;;5.53;24.06
75045;BME280;63614;56.026;35.960;2023-04-15T07:11:44;100588.44;;;5.32;24.28
75045;BME280;63614;56.026;35.960;2023-04-15T07:14:11;100590.13;;;5.42;23.81
75045;BME280;63614;56.026;35.960;2023-04-15T07:16:37;100588.03;;;5.48;24.18
75045;BME280;63614;56.026;35.960;2023-04-15T07:19:04;100591.09;;;5.41;23.82
75045;BME280;63614;56.026;35.960;2023-04-15T07:21:31;100590.50;;;5.49;24.22
75045;BME280;63614;56.026;35.960;2023-04-15T07:23:59;100598.81;;;5.20;24.05
75045;BME280;63614;56.026;35.960;2023-04-15T07:26:26;100592.91;;;5.30;24.18
75045;BME280;63614;56.026;35.960;2023-04-15T07:28:53;100589.94;;;5.34;23.02
75045;BME280;63614;56.026;35.960;2023-04-15T07:31:20;100588.66;;;5.61;23.28
75045;BME280;63614;56.026;35.960;2023-04-15T07:33:47;100589.50;;;5.82;23.23
75045;BME280;63614;56.026;35.960;2023-04-15T07:36:14;100600.38;;;6.07;23.60
75045;BME280;63614;56.026;35.960;2023-04-15T07:38:41;100579.41;;;6.31;22.95
75045;BME280;63614;56.026;35.960;2023-04-15T07:41:08;100584.13;;;6.16;22.77
75045;BME280;63614;56.026;35.960;2023-04-15T07:43:36;100574.19;;;6.22;22.33
75045;BME280;63614;56.026;35.960;2023-04-15T07:46:03;100584.44;;;6.02;22.64
75045;BME280;63614;56.026;35.960;2023-04-15T07:48:30;100578.31;;;6.24;22.99
75045;BME280;63614;56.026;35.960;2023-04-15T07:50:57;100572.13;;;6.15;23.04
75045;BME280;63614;56.026;35.960;2023-04-15T07:53:24;100570.78;;;6.52;22.69
75045;BME280;63614;56.026;35.960;2023-04-15T07:55:51;100571.28;;;6.05;22.09
75045;BME280;63614;56.026;35.960;2023-04-15T07:58:18;100572.63;;;6.30;21.75
75045;BME280;63614;56.026;35.960;2023-04-15T08:00:45;100567.41;;;6.61;21.60
75045;BME280;63614;56.026;35.960;2023-04-15T08:03:12;100558.75;;;6.41;22.05
75045;BME280;63614;56.026;35.960;2023-04-15T08:05:39;100570.19;;;6.39;21.62
75045;BME280;63614;56.026;35.960;2023-04-15T08:08:06;100561.97;;;6.64;22.27
75045;BME280;63614;56.026;35.960;2023-04-15T08:10:34;100564.06;;;6.40;21.89
75045;BME280;63614;56.026;35.960;2023-04-15T08:13:01;100558.97;;;6.69;20.99
75045;BME280;63614;56.026;35.960;2023-04-15T08:15:28;100557.22;;;6.69;21.35
75045;BME280;63614;56.026;35.960;2023-04-15T08:17:55;100551.25;;;7.08;21.11
75045;BME280;63614;56.026;35.960;2023-04-15T08:20:22;100554.13;;;7.34;20.26
75045;BME280;63614;56.026;35.960;2023-04-15T08:22:49;100563.13;;;7.11;20.63
75045;BME280;63614;56.026;35.960;2023-04-15T08:25:17;100547.56;;;7.40;19.98
75045;BME280;63614;56.026;35.960;2023-04-15T08:27:45;100555.63;;;7.17;19.96
75045;BME280;63614;56.026;35.960;2023-04-15T08:30:12;100563.38;;;7.27;19.23
75045;BME280;63614;56.026;35.960;2023-04-15T08:32:41;100543.22;;;7.50;19.20
75045;BME280;63614;56.026;35.960;2023-04-15T08:35:08;100555.75;;;7.25;19.67
75045;BME280;63614;56.026;35.960;2023-04-15T08:37:36;100549.06;;;7.13;20.47
75045;BME280;63614;56.026;35.960;2023-04-15T08:40:03;100552.22;;;7.17;19.58
75045;BME280;63614;56.026;35.960;2023-04-15T08:42:40;100550.13;;;7.50;20.12
75045;BME280;63614;56.026;35.960;2023-04-15T08:45:08;100554.94;;;7.25;19.99
75045;BME280;63614;56.026;35.960;2023-04-15T08:47:37;100554.38;;;7.02;20.27
75045;BME280;63614;56.026;35.960;2023-04-15T08:50:08;100541.88;;;7.07;19.99
75045;BME280;63614;56.026;35.960;2023-04-15T08:52:36;100553.31;;;7.04;19.79
75045;BME280;63614;56.026;35.960;2023-04-15T08:55:03;100540.63;;;6.91;20.02
75045;BME280;63614;56.026;35.960;2023-04-15T08:57:31;100549.91;;;7.23;20.46
75045;BME280;63614;56.026;35.960;2023-04-15T09:00:01;100546.41;;;7.72;20.14
75045;BME280;63614;56.026;35.960;2023-04-15T09:02:30;100564.47;;;7.15;19.30
75045;BME280;63614;56.026;35.960;2023-04-15T09:04:57;100541.72;;;7.28;19.63
75045;BME280;63614;56.026;35.960;2023-04-15T09:07:24;100556.59;;;7.26;19.48
75045;BME280;63614;56.026;35.960;2023-04-15T09:09:50;100534.34;;;7.43;19.11
75045;BME280;63614;56.026;35.960;2023-04-15T09:12:17;100525.53;;;7.26;20.29
75045;BME280;63614;56.026;35.960;2023-04-15T09:14:45;100530.16;;;7.03;19.46
75045;BME280;63614;56.026;35.960;2023-04-15T09:17:17;100530.28;;;7.40;19.65
75045;BME280;63614;56.026;35.960;2023-04-15T09:19:45;100549.84;;;7.62;18.80
75045;BME280;63614;56.026;35.960;2023-04-15T09:22:12;100526.88;;;7.20;19.06
75045;BME280;63614;56.026;35.960;2023-04-15T09:24:39;100530.69;;;6.97;18.27
75045;BME280;63614;56.026;35.960;2023-04-15T09:27:07;100522.78;;;7.18;18.14
75045;BME280;63614;56.026;35.960;2023-04-15T09:29:35;100531.53;;;7.07;17.95
75045;BME280;63614;56.026;35.960;2023-04-15T09:32:09;100517.47;;;7.39;18.67
75045;BME280;63614;56.026;35.960;2023-04-15T09:34:36;100524.78;;;7.43;18.92
75045;BME280;63614;56.026;35.960;2023-04-15T09:37:04;100518.59;;;7.84;19.60
75045;BME280;63614;56.026;35.960;2023-04-15T09:39:51;100526.00;;;8.06;19.77
75045;BME280;63614;56.026;35.960;2023-04-15T09:42:18;100521.03;;;7.85;19.21
75045;BME280;63614;56.026;35.960;2023-04-15T09:44:52;100526.00;;;8.06;19.90
75045;BME280;63614;56.026;35.960;2023-04-15T09:47:29;100522.91;;;7.93;19.71
75045;BME280;63614;56.026;35.960;2023-04-15T09:50:00;100524.00;;;7.90;17.25
75045;BME280;63614;56.026;35.960;2023-04-15T09:52:28;100519.34;;;7.94;18.55
75045;BME280;63614;56.026;35.960;2023-04-15T09:54:58;100522.88;;;8.30;19.63
75045;BME280;63614;56.026;35.960;2023-04-15T09:57:34;100523.38;;;8.16;20.10
75045;BME280;63614;56.026;35.960;2023-04-15T10:00:06;100526.75;;;7.89;19.41
75045;BME280;63614;56.026;35.960;2023-04-15T10:02:52;100537.09;;;7.89;19.21
75045;BME280;63614;56.026;35.960;2023-04-15T10:05:19;100521.97;;;8.22;19.13
75045;BME280;63614;56.026;35.960;2023-04-15T10:07:46;100528.41;;;8.17;18.92
75045;BME280;63614;56.026;35.960;2023-04-15T10:10:14;100530.44;;;8.24;18.60
75045;BME280;63614;56.026;35.960;2023-04-15T10:12:41;100538.19;;;7.86;18.57
75045;BME280;63614;56.026;35.960;2023-04-15T10:15:14;100541.72;;;7.95;18.72
75045;BME280;63614;56.026;35.960;2023-04-15T10:17:43;100538.97;;;8.06;19.16
75045;BME280;63614;56.026;35.960;2023-04-15T10:20:11;100546.63;;;7.98;17.83
75045;BME280;63614;56.026;35.960;2023-04-15T10:22:41;100537.06;;;7.51;18.16
75045;BME280;63614;56.026;35.960;2023-04-15T10:25:08;100536.81;;;7.92;18.41
75045;BME280;63614;56.026;35.960;2023-04-15T10:27:36;100542.78;;;8.02;18.15
75045;BME280;63614;56.026;35.960;2023-04-15T10:30:05;100532.13;;;7.68;18.40
75045;BME280;63614;56.026;35.960;2023-04-15T10:32:32;100533.78;;;8.06;18.81
75045;BME280;63614;56.026;35.960;2023-04-15T10:35:00;100542.91;;;8.00;18.59
75045;BME280;63614;56.026;35.960;2023-04-15T10:37:35;100543.53;;;7.75;18.50
75045;BME280;63614;56.026;35.960;2023-04-15T10:40:27;100548.25;;;7.99;17.78
75045;BME280;63614;56.026;35.960;2023-04-15T10:42:55;100537.69;;;7.73;17.92
75045;BME280;63614;56.026;35.960;2023-04-15T10:45:25;100530.38;;;7.96;17.64
75045;BME280;63614;56.026;35.960;2023-04-15T10:47:57;100527.28;;;7.92;17.60
75045;BME280;63614;56.026;35.960;2023-04-15T10:50:30;100526.47;;;7.92;18.26
75045;BME280;63614;56.026;35.960;2023-04-15T10:52:58;100539.34;;;8.39;18.55
75045;BME280;63614;56.026;35.960;2023-04-15T10:58:16;100541.03;;;7.93;17.58
75045;BME280;63614;56.026;35.960;2023-04-15T11:00:50;100528.91;;;7.93;18.01
75045;BME280;63614;56.026;35.960;2023-04-15T11:03:37;100522.13;;;7.82;17.94
75045;BME280;63614;56.026;35.960;2023-04-15T11:06:07;100521.47;;;8.08;18.28
75045;BME280;63614;56.026;35.960;2023-04-15T11:08:57;100513.69;;;7.80;17.18
75045;BME280;63614;56.026;35.960;2023-04-15T11:12:06;100510.28;;;8.35;17.47
75045;BME280;63614;56.026;35.960;2023-04-15T11:14:32;100519.84;;;8.35;17.26
75045;BME280;63614;56.026;35.960;2023-04-15T11:17:00;100519.84;;;8.35;17.95
75045;BME280;63614;56.026;35.960;2023-04-15T11:20:05;100515.78;;;8.32;17.59
75045;BME280;63614;56.026;35.960;2023-04-15T11:25:24;100508.97;;;8.31;17.50
75045;BME280;63614;56.026;35.960;2023-04-15T11:27:52;100514.88;;;8.24;16.94
75045;BME280;63614;56.026;35.960;2023-04-15T11:30:25;100499.25;;;8.06;16.98
75045;BME280;63614;56.026;35.960;2023-04-15T11:32:56;100502.53;;;8.08;17.07
75045;BME280;63614;56.026;35.960;2023-04-15T11:35:24;100499.84;;;8.27;17.61
75045;BME280;63614;56.026;35.960;2023-04-15T11:37:51;100495.94;;;8.41;17.83
75045;BME280;63614;56.026;35.960;2023-04-15T11:40:23;100494.66;;;8.55;16.84
75045;BME280;63614;56.026;35.960;2023-04-15T11:43:27;100499.59;;;8.48;17.14
75045;BME280;63614;56.026;35.960;2023-04-15T11:45:59;100498.19;;;8.26;17.26
75045;BME280;63614;56.026;35.960;2023-04-15T11:48:28;100484.59;;;8.42;17.46
75045;BME280;63614;56.026;35.960;2023-04-15T11:51:06;100494.56;;;8.47;16.81
75045;BME280;63614;56.026;35.960;2023-04-15T11:56:38;100486.66;;;8.21;17.33
75045;BME280;63614;56.026;35.960;2023-04-15T11:59:04;100491.97;;;8.19;16.65
75045;BME280;63614;56.026;35.960;2023-04-15T12:01:34;100499.69;;;8.29;17.22
75045;BME280;63614;56.026;35.960;2023-04-15T12:04:01;100478.44;;;8.25;17.47
75045;BME280;63614;56.026;35.960;2023-04-15T12:06:32;100486.75;;;8.29;16.08
75045;BME280;63614;56.026;35.960;2023-04-15T12:09:17;100486.13;;;8.45;17.14
75045;BME280;63614;56.026;35.960;2023-04-15T12:11:46;100475.94;;;8.33;16.46
75045;BME280;63614;56.026;35.960;2023-04-15T12:14:31;100510.66;;;8.41;16.61
75045;BME280;63614;56.026;35.960;2023-04-15T12:17:02;100484.94;;;8.29;16.11
75045;BME280;63614;56.026;35.960;2023-04-15T12:19:30;100486.13;;;8.45;16.31
75045;BME280;63614;56.026;35.960;2023-04-15T12:22:11;100475.47;;;8.48;16.07
75045;BME280;63614;56.026;35.960;2023-04-15T12:24:37;100479.91;;;8.56;16.73
75045;BME280;63614;56.026;35.960;2023-04-15T12:27:10;100485.03;;;8.65;17.00
75045;BME280;63614;56.026;35.960;2023-04-15T12:29:37;100489.41;;;8.65;17.09
75045;BME280;63614;56.026;35.960;2023-04-15T12:32:09;100478.88;;;8.48;16.32
75045;BME280;63614;56.026;35.960;2023-04-15T12:34:47;100480.03;;;8.36;17.02
75045;BME280;63614;56.026;35.960;2023-04-15T12:39:58;100490.41;;;8.36;17.63
75045;BME280;63614;56.026;35.960;2023-04-15T12:42:43;100493.00;;;8.36;17.64
75045;BME280;63614;56.026;35.960;2023-04-15T12:48:12;100487.81;;;8.36;17.50
75045;BME280;63614;56.026;35.960;2023-04-15T12:50:37;100485.03;;;8.37;16.95
75045;BME280;63614;56.026;35.960;2023-04-15T12:53:03;100493.75;;;8.46;17.22
75045;BME280;63614;56.026;35.960;2023-04-15T12:55:29;100484.88;;;8.39;17.84
75045;BME280;63614;56.026;35.960;2023-04-15T12:57:58;100507.56;;;8.37;17.42
75045;BME280;63614;56.026;35.960;2023-04-15T13:00:23;100494.50;;;8.29;17.95
75045;BME280;63614;56.026;35.960;2023-04-15T13:03:08;100487.53;;;8.29;17.86
75045;BME280;63614;56.026;35.960;2023-04-15T13:05:33;100489.66;;;8.44;18.02
75045;BME280;63614;56.026;35.960;2023-04-15T13:08:01;100481.19;;;8.42;17.38
75045;BME280;63614;56.026;35.960;2023-04-15T13:10:28;100488.72;;;8.45;17.17